createdAt,value
2023-01-20T00:00:05.199Z,99363.33
2023-01-20T00:02:59.447Z,99368.98
2023-01-20T00:05:26.974Z,99371.20
2023-01-20T00:07:54.021Z,99374.81
2023-01-20T00:10:21.546Z,99382.71
2023-01-20T00:12:48.833Z,99385.80
2023-01-20T00:15:16.701Z,99388.05
2023-01-20T00:17:44.083Z,99390.28
2023-01-20T00:20:13.756Z,99395.92
2023-01-20T00:22:42.559Z,99400.20
2023-01-20T00:25:11.257Z,99402.27
2023-01-20T00:27:38.290Z,99406.05
2023-01-20T00:30:06.293Z,99407.95
2023-01-20T00:32:37.606Z,99410.70
2023-01-20T00:35:04.963Z,99410.54
2023-01-20T00:37:32.008Z,99420.81
2023-01-20T00:39:59.233Z,99421.84
2023-01-20T00:42:26.150Z,99429.90
2023-01-20T00:44:53.255Z,99433.67
2023-01-20T00:47:21.370Z,99438.48
2023-01-20T00:49:48.432Z,99440.70
2023-01-20T00:52:15.832Z,99442.24
2023-01-20T00:54:42.971Z,99447.72
2023-01-20T00:57:10.176Z,99448.75
2023-01-20T00:59:37.148Z,99453.02
2023-01-20T01:02:04.700Z,99452.50
2023-01-20T01:04:32.125Z,99456.09
2023-01-20T01:06:59.493Z,99462.58
2023-01-20T01:09:26.549Z,99464.48
2023-01-20T01:11:54.132Z,99458.48
2023-01-20T01:14:21.121Z,99458.83
2023-01-20T01:16:48.176Z,99454.36
2023-01-20T01:19:16.225Z,99455.05
2023-01-20T01:21:43.249Z,99459.51
2023-01-20T01:24:11.447Z,99464.30
2023-01-20T01:26:38.599Z,99466.35
2023-01-20T01:29:05.956Z,99471.14
2023-01-20T01:31:33.274Z,99474.23
2023-01-20T01:34:00.489Z,99477.30
2023-01-20T01:36:27.830Z,99479.70
2023-01-20T01:38:58.440Z,99480.73
2023-01-20T01:41:26.440Z,99480.05
2023-01-20T01:44:05.836Z,99479.70
2023-01-20T01:46:33.206Z,99486.56
2023-01-20T01:49:04.721Z,99488.77
2023-01-20T01:51:36.291Z,99487.23
2023-01-20T01:54:07.777Z,99484.34
2023-01-20T01:56:35.735Z,99482.63
2023-01-20T01:59:04.851Z,99479.56
2023-01-20T02:01:34.976Z,99480.94
2023-01-20T02:04:05.407Z,99482.12
2023-01-20T02:06:37.005Z,99480.25
2023-01-20T02:09:05.900Z,99477.67
2023-01-20T02:11:36.880Z,99475.80
2023-01-20T02:14:04.188Z,99477.35
2023-01-20T02:16:41.673Z,99477.36
2023-01-20T02:19:29.904Z,99478.55
2023-01-20T02:22:15.724Z,99487.61
2023-01-20T02:25:14.123Z,99492.39
2023-01-20T02:28:16.771Z,99496.85
2023-01-20T02:31:01.369Z,99492.23
2023-01-20T02:33:33.279Z,99491.38
2023-01-20T02:36:04.712Z,99499.27
2023-01-20T02:38:41.760Z,99501.30
2023-01-20T02:41:13.654Z,99498.23
2023-01-20T02:43:50.099Z,99500.27
2023-01-20T02:46:25.746Z,99501.83
2023-01-20T02:48:57.204Z,99499.59
2023-01-20T02:51:27.870Z,99497.88
2023-01-20T02:53:57.869Z,99495.65
2023-01-20T02:56:29.875Z,99494.13
2023-01-20T02:59:02.142Z,99486.11
2023-01-20T03:01:35.273Z,99485.94
2023-01-20T03:04:05.871Z,99489.88
2023-01-20T03:06:37.788Z,99490.73
2023-01-20T03:09:08.765Z,99484.40
2023-01-20T03:11:39.648Z,99485.25
2023-01-20T03:14:11.531Z,99489.89
2023-01-20T03:16:39.849Z,99498.96
2023-01-20T03:19:07.061Z,99501.88
2023-01-20T03:21:35.639Z,99503.77
2023-01-20T03:24:05.699Z,99503.59
2023-01-20T03:26:34.980Z,99499.31
2023-01-20T03:29:04.562Z,99505.64
2023-01-20T03:31:36.380Z,99506.31
2023-01-20T03:34:07.664Z,99511.11
2023-01-20T03:36:35.837Z,99515.56
2023-01-20T03:39:03.309Z,99515.22
2023-01-20T03:41:37.762Z,99517.77
2023-01-20T03:44:13.161Z,99519.65
2023-01-20T03:46:48.582Z,99518.60
2023-01-20T03:49:23.745Z,99522.20
2023-01-20T03:52:01.021Z,99532.98
2023-01-20T03:54:35.206Z,99541.37
2023-01-20T03:57:08.036Z,99545.48
2023-01-20T03:59:38.505Z,99545.67
2023-01-20T04:02:09.517Z,99558.67
2023-01-20T04:04:41.146Z,99569.29
2023-01-20T04:07:10.861Z,99573.75
2023-01-20T04:09:43.440Z,99574.80
2023-01-20T04:12:12.217Z,99574.98
2023-01-20T04:14:39.501Z,99578.05
2023-01-20T04:17:08.123Z,99582.66
2023-01-20T04:19:35.383Z,99584.19
2023-01-20T04:22:07.814Z,99583.48
2023-01-20T04:24:39.479Z,99586.73
2023-01-20T04:27:06.687Z,99589.64
2023-01-20T04:29:33.943Z,99588.44
2023-01-20T04:32:05.537Z,99591.36
2023-01-20T04:34:33.346Z,99591.70
2023-01-20T04:37:00.432Z,99596.16
2023-01-20T04:39:27.602Z,99602.33
2023-01-20T04:41:54.753Z,99604.73
2023-01-20T04:44:22.503Z,99606.94
2023-01-20T04:46:49.648Z,99612.07
2023-01-20T04:49:17.067Z,99622.34
2023-01-20T04:51:44.130Z,99633.81
2023-01-20T04:54:12.767Z,99631.59
2023-01-20T04:56:39.759Z,99637.92
2023-01-20T04:59:06.883Z,99646.83
2023-01-20T05:01:34.002Z,99653.50
2023-01-20T05:04:01.172Z,99653.67
2023-01-20T05:06:28.513Z,99655.89
2023-01-20T05:08:56.248Z,99653.31
2023-01-20T05:11:23.159Z,99656.05
2023-01-20T05:13:50.474Z,99651.25
2023-01-20T05:16:23.369Z,99659.63
2023-01-20T05:18:50.721Z,99660.48
2023-01-20T05:21:17.901Z,99656.35
2023-01-20T05:23:45.020Z,99653.44
2023-01-20T05:26:12.667Z,99661.65
2023-01-20T05:28:39.648Z,99667.98
2023-01-20T05:31:07.088Z,99678.10
2023-01-20T05:33:34.388Z,99680.32
2023-01-20T05:36:05.354Z,99687.34
2023-01-20T05:38:32.480Z,99688.02
2023-01-20T05:41:03.725Z,99689.05
2023-01-20T05:43:31.027Z,99691.96
2023-01-20T05:45:58.476Z,99689.21
2023-01-20T05:48:25.971Z,99684.75
2023-01-20T05:50:52.948Z,99694.17
2023-01-20T05:53:21.013Z,99701.72
2023-01-20T05:55:48.516Z,99711.13
2023-01-20T05:58:15.834Z,99719.02
2023-01-20T06:00:43.055Z,99725.52
2023-01-20T06:03:10.350Z,99732.55
2023-01-20T06:05:37.434Z,99750.35
2023-01-20T06:08:04.461Z,99768.16
2023-01-20T06:10:31.862Z,99772.45
2023-01-20T06:12:59.439Z,99780.15
2023-01-20T06:15:27.205Z,99780.66
2023-01-20T06:17:56.604Z,99783.23
2023-01-20T06:20:23.902Z,99778.26
2023-01-20T06:22:55.479Z,99790.59
2023-01-20T06:25:22.709Z,99799.83
2023-01-20T06:27:49.727Z,99808.40
2023-01-20T06:30:18.083Z,99813.36
2023-01-20T06:32:47.368Z,99810.95
2023-01-20T06:35:14.585Z,99813.20
2023-01-20T06:37:41.863Z,99816.60
2023-01-20T06:40:10.730Z,99820.20
2023-01-20T06:42:37.688Z,99819.69
2023-01-20T06:45:05.034Z,99816.27
2023-01-20T06:47:32.319Z,99820.04
2023-01-20T06:49:59.287Z,99830.48
2023-01-20T06:52:26.442Z,99829.11
2023-01-20T06:54:53.795Z,99830.13
2023-01-20T06:57:20.763Z,99830.29
2023-01-20T06:59:47.998Z,99837.13
2023-01-20T07:02:15.352Z,99844.69
2023-01-20T07:04:43.607Z,99842.61
2023-01-20T07:07:13.949Z,99835.58
2023-01-20T07:09:41.007Z,99838.83
2023-01-20T07:12:08.499Z,99845.33
2023-01-20T07:14:35.573Z,99855.44
2023-01-20T07:17:02.746Z,99851.98
2023-01-20T07:19:29.741Z,99856.45
2023-01-20T07:21:56.833Z,99858.15
2023-01-20T07:24:23.879Z,99868.25
2023-01-20T07:26:53.298Z,99872.17
2023-01-20T07:29:20.978Z,99874.58
2023-01-20T07:31:48.207Z,99866.86
2023-01-20T07:34:15.194Z,99861.53
2023-01-20T07:36:42.144Z,99861.88
2023-01-20T07:39:10.623Z,99868.91
2023-01-20T07:41:38.157Z,99869.27
2023-01-20T07:44:05.761Z,99867.02
2023-01-20T07:46:33.374Z,99866.15
2023-01-20T07:49:00.571Z,99872.84
2023-01-20T07:51:27.636Z,99874.89
2023-01-20T07:53:55.436Z,99877.80
2023-01-20T07:56:24.464Z,99873.16
2023-01-20T07:58:52.015Z,99872.13
2023-01-20T08:01:21.708Z,99876.23
2023-01-20T08:03:49.103Z,99879.84
2023-01-20T08:06:18.996Z,99879.84
2023-01-20T08:08:46.334Z,99878.29
2023-01-20T08:11:15.735Z,99881.89
2023-01-20T08:13:44.006Z,99883.25
2023-01-20T08:16:13.440Z,99882.39
2023-01-20T08:18:41.316Z,99881.88
2023-01-20T08:21:17.879Z,99884.27
2023-01-20T08:23:44.968Z,99888.05
2023-01-20T08:26:12.446Z,99887.01
2023-01-20T08:28:39.593Z,99888.19
2023-01-20T08:31:09.000Z,99886.45
2023-01-20T08:33:36.093Z,99886.61
2023-01-20T08:36:09.507Z,99885.92
2023-01-20T08:38:37.608Z,99889.17
2023-01-20T08:41:07.030Z,99889.67
2023-01-20T08:43:34.514Z,99888.96
2023-01-20T08:46:07.669Z,99895.11
2023-01-20T08:48:35.260Z,99899.04
2023-01-20T08:51:04.390Z,99906.24
2023-01-20T08:53:31.593Z,99906.60
2023-01-20T08:56:00.603Z,99907.27
2023-01-20T08:58:28.995Z,99909.31
2023-01-20T09:00:56.809Z,99906.23
2023-01-20T09:03:24.306Z,99908.63
2023-01-20T09:05:51.658Z,99902.61
2023-01-20T09:08:19.549Z,99899.86
2023-01-20T09:10:47.688Z,99895.57
2023-01-20T09:13:14.798Z,99900.21
2023-01-20T09:15:42.068Z,99902.46
2023-01-20T09:18:09.566Z,99901.44
2023-01-20T09:20:37.346Z,99909.33
2023-01-20T09:23:05.543Z,99915.16
2023-01-20T09:25:32.901Z,99918.58
2023-01-20T09:28:03.118Z,99921.64
2023-01-20T09:30:30.236Z,99922.98
2023-01-20T09:32:59.647Z,99924.17
2023-01-20T09:35:26.910Z,99929.14
2023-01-20T09:38:11.416Z,99927.73
2023-01-20T09:41:12.679Z,99930.95
2023-01-20T09:43:55.145Z,99937.98
2023-01-20T09:46:31.320Z,99944.33
2023-01-20T09:49:23.545Z,99952.74
2023-01-20T09:52:20.405Z,99955.65
2023-01-20T09:54:52.878Z,99952.73
2023-01-20T09:57:23.367Z,99960.66
2023-01-20T09:59:56.380Z,99957.90
2023-01-20T10:02:28.447Z,99956.19
2023-01-20T10:05:00.621Z,99957.21
2023-01-20T10:07:36.771Z,99955.85
2023-01-20T10:10:09.641Z,99958.23
2023-01-20T10:12:42.504Z,99955.63
2023-01-20T10:15:14.631Z,99953.20
2023-01-20T10:17:50.484Z,99949.58
2023-01-20T10:20:28.035Z,99945.80
2023-01-20T10:22:58.862Z,99950.09
2023-01-20T10:25:30.292Z,99947.36
2023-01-20T10:28:01.646Z,99951.15
2023-01-20T10:30:34.942Z,99958.06
2023-01-20T10:33:09.773Z,99956.02
2023-01-20T10:35:41.733Z,99958.46
2023-01-20T10:38:19.556Z,99963.63
2023-01-20T10:40:53.766Z,99965.02
2023-01-20T10:43:22.065Z,99968.46
2023-01-20T10:46:03.150Z,99970.52
2023-01-20T10:48:44.833Z,99972.77
2023-01-20T10:51:20.810Z,99975.52
2023-01-20T10:53:59.080Z,99976.36
2023-01-20T10:56:36.503Z,99984.77
2023-01-20T10:59:09.320Z,99990.25
2023-01-20T11:01:38.009Z,99986.12
2023-01-20T11:04:05.295Z,99982.50
2023-01-20T11:06:32.676Z,99980.27
2023-01-20T11:09:09.342Z,99980.09
2023-01-20T11:11:38.182Z,99979.56
2023-01-20T11:14:05.576Z,99979.73
2023-01-20T11:16:32.709Z,99972.84
2023-01-20T11:19:02.583Z,99973.52
2023-01-20T11:21:32.462Z,99973.49
2023-01-20T11:24:00.532Z,99977.58
2023-01-20T11:26:29.237Z,99979.44
2023-01-20T11:28:59.564Z,99977.38
2023-01-20T11:31:39.709Z,99981.34
2023-01-20T11:34:23.873Z,99992.48
2023-01-20T11:36:51.403Z,99989.91
2023-01-20T11:39:30.547Z,99991.98
2023-01-20T11:44:51.644Z,99998.09
2023-01-20T11:47:30.711Z,100010.10
2023-01-20T11:50:29.569Z,100010.61
2023-01-20T11:53:14.921Z,100014.90
2023-01-20T11:55:50.159Z,100016.60
2023-01-20T11:58:21.058Z,100017.98
2023-01-20T12:00:50.960Z,100016.27
2023-01-20T12:03:51.078Z,100017.64
2023-01-20T12:06:25.268Z,100016.45
2023-01-20T12:08:56.439Z,100018.89
2023-01-20T12:11:29.937Z,100018.76
2023-01-20T12:14:23.472Z,100021.86
2023-01-20T12:16:54.726Z,100026.38
2023-01-20T12:19:31.385Z,100025.72
2023-01-20T12:22:02.463Z,100026.08
2023-01-20T12:24:57.841Z,100036.56
2023-01-20T12:27:28.967Z,100037.45
2023-01-20T12:30:01.453Z,100039.70
2023-01-20T12:32:29.422Z,100042.80
2023-01-20T12:34:56.907Z,100047.44
2023-01-20T12:37:31.409Z,100046.60
2023-01-20T12:40:14.367Z,100049.17
2023-01-20T12:43:08.975Z,100052.62
2023-01-20T12:46:00.664Z,100050.23
2023-01-20T12:48:39.386Z,100052.27
2023-01-20T12:51:20.339Z,100048.16
2023-01-20T12:54:04.501Z,100044.04
2023-01-20T12:56:44.113Z,100045.07
2023-01-20T12:59:22.849Z,100048.16
2023-01-20T13:02:11.283Z,100056.04
2023-01-20T13:05:00.168Z,100058.11
2023-01-20T13:07:42.866Z,100055.88
2023-01-20T13:10:30.802Z,100049.02
2023-01-20T13:13:05.300Z,100048.88
2023-01-20T13:15:36.740Z,100048.52
2023-01-20T13:18:28.483Z,100055.38
2023-01-20T13:20:56.433Z,100059.34
2023-01-20T13:23:27.107Z,100061.55
2023-01-20T13:25:55.159Z,100062.77
2023-01-20T13:28:26.062Z,100062.44
2023-01-20T13:30:55.280Z,100061.59
2023-01-20T13:33:35.341Z,100063.14
2023-01-20T13:36:14.167Z,100059.38
2023-01-20T13:38:41.822Z,100053.89
2023-01-20T13:41:10.168Z,100049.25
2023-01-20T13:43:49.512Z,100047.17
2023-01-20T13:46:44.815Z,100044.45
2023-01-20T13:49:26.917Z,100039.81
2023-01-20T13:51:54.211Z,100043.40
2023-01-20T13:54:46.123Z,100046.66
2023-01-20T13:57:39.728Z,100046.17
2023-01-20T14:00:15.561Z,100037.09
2023-01-20T14:02:43.120Z,100037.45
2023-01-20T14:05:28.000Z,100039.50
2023-01-20T14:07:55.622Z,100046.38
2023-01-20T14:10:22.866Z,100048.94
2023-01-20T14:12:50.382Z,100048.60
2023-01-20T14:15:41.245Z,100049.97
2023-01-20T14:18:17.544Z,100056.32
2023-01-20T14:20:46.780Z,100062.49
2023-01-20T14:23:32.598Z,100068.85
2023-01-20T14:26:20.283Z,100076.90
2023-01-20T14:28:52.564Z,100082.73
2023-01-20T14:31:22.916Z,100085.45
2023-01-20T14:33:53.560Z,100093.51
2023-01-20T14:36:22.949Z,100095.92
2023-01-20T14:38:58.513Z,100099.00
2023-01-20T14:41:47.031Z,100100.20
2023-01-20T14:44:20.641Z,100103.25
2023-01-20T14:46:49.431Z,100110.96
2023-01-20T14:49:18.728Z,100113.35
2023-01-20T14:51:46.675Z,100113.70
2023-01-20T14:54:34.767Z,100115.25
2023-01-20T14:57:06.214Z,100117.64
2023-01-20T14:59:34.497Z,100121.41
2023-01-20T15:02:08.331Z,100129.98
2023-01-20T15:04:39.924Z,100142.83
2023-01-20T15:07:07.534Z,100141.63
2023-01-20T15:09:35.987Z,100143.51
2023-01-20T15:12:54.250Z,100144.19
2023-01-20T15:15:29.879Z,100157.22
2023-01-20T15:18:21.617Z,100161.67
2023-01-20T15:20:51.016Z,100157.91
2023-01-20T15:23:22.236Z,100155.00
2023-01-20T15:25:49.836Z,100151.05
2023-01-20T15:28:31.318Z,100154.14
2023-01-20T15:31:00.161Z,100154.14
2023-01-20T15:33:30.726Z,100161.16
2023-01-20T15:36:01.362Z,100167.33
2023-01-20T15:38:32.671Z,100166.30
2023-01-20T15:41:00.408Z,100163.91
2023-01-20T15:43:27.712Z,100168.02
2023-01-20T15:45:55.006Z,100165.45
2023-01-20T15:48:24.495Z,100167.69
2023-01-20T15:50:51.842Z,100161.04
2023-01-20T15:53:19.263Z,100164.98
2023-01-20T15:55:49.287Z,100164.29
2023-01-20T15:58:27.410Z,100167.89
2023-01-20T16:00:56.199Z,100163.09
2023-01-20T16:03:23.627Z,100164.63
2023-01-20T16:05:53.301Z,100161.89
2023-01-20T16:08:21.768Z,100164.98
2023-01-20T16:10:49.811Z,100160.52
2023-01-20T16:13:17.364Z,100164.46
2023-01-20T16:15:45.780Z,100165.64
2023-01-20T16:18:16.463Z,100165.63
2023-01-20T16:20:44.840Z,100172.66
2023-01-20T16:23:12.435Z,100171.45
2023-01-20T16:25:40.100Z,100172.83
2023-01-20T16:28:15.613Z,100178.16
2023-01-20T16:30:43.578Z,100187.09
2023-01-20T16:33:19.135Z,100188.27
2023-01-20T16:35:46.478Z,100194.42
2023-01-20T16:38:16.732Z,100191.52
2023-01-20T16:40:49.081Z,100195.27
2023-01-20T16:43:17.710Z,100199.56
2023-01-20T16:45:45.369Z,100203.33
2023-01-20T16:48:13.083Z,100204.17
2023-01-20T16:50:40.135Z,100204.69
2023-01-20T16:53:07.614Z,100208.80
2023-01-20T16:55:35.033Z,100215.30
2023-01-20T16:58:02.387Z,100217.52
2023-01-20T17:00:29.465Z,100224.16
2023-01-20T17:02:56.520Z,100227.41
2023-01-20T17:05:25.773Z,100228.95
2023-01-20T17:07:53.102Z,100228.94
2023-01-20T17:10:22.554Z,100229.77
2023-01-20T17:12:49.626Z,100234.34
2023-01-20T17:15:16.787Z,100232.61
2023-01-20T17:17:43.915Z,100235.52
2023-01-20T17:20:14.628Z,100237.20
2023-01-20T17:22:43.440Z,100242.84
2023-01-20T17:25:12.290Z,100242.81
2023-01-20T17:27:39.601Z,100239.38
2023-01-20T17:30:09.193Z,100239.20
2023-01-20T17:32:36.663Z,100237.48
2023-01-20T17:35:03.722Z,100238.49
2023-01-20T17:37:31.345Z,100242.09
2023-01-20T17:40:00.056Z,100243.61
2023-01-20T17:42:27.309Z,100245.33
2023-01-20T17:44:54.419Z,100240.88
2023-01-20T17:47:21.697Z,100241.06
2023-01-20T17:49:48.727Z,100239.18
2023-01-20T17:52:15.867Z,100244.14
2023-01-20T17:54:43.448Z,100249.29
2023-01-20T17:57:10.476Z,100251.16
2023-01-20T17:59:37.494Z,100254.92
2023-01-20T18:02:05.744Z,100254.94
2023-01-20T18:04:33.356Z,100256.65
2023-01-20T18:07:01.127Z,100258.88
2023-01-20T18:09:28.445Z,100260.08
2023-01-20T18:11:55.425Z,100259.05
2023-01-20T18:14:22.936Z,100259.58
2023-01-20T18:16:50.656Z,100259.75
2023-01-20T18:19:17.925Z,100249.14
2023-01-20T18:21:45.829Z,100250.16
2023-01-20T18:24:14.182Z,100251.36
2023-01-20T18:26:42.999Z,100252.90
2023-01-20T18:29:13.360Z,100251.18
2023-01-20T18:31:40.604Z,100253.06
2023-01-20T18:34:11.858Z,100258.19
2023-01-20T18:36:40.931Z,100256.98
2023-01-20T18:39:09.885Z,100257.33
2023-01-20T18:41:38.281Z,100260.42
2023-01-20T18:44:06.565Z,100261.27
2023-01-20T18:46:34.199Z,100266.75
2023-01-20T18:49:01.663Z,100268.30
2023-01-20T18:51:32.231Z,100266.41
2023-01-20T18:54:01.239Z,100264.55
2023-01-20T18:56:30.157Z,100273.63
2023-01-20T18:58:57.766Z,100271.75
2023-01-20T19:01:27.905Z,100268.52
2023-01-20T19:03:55.311Z,100269.38
2023-01-20T19:06:24.424Z,100272.43
2023-01-20T19:08:52.407Z,100270.40
2023-01-20T19:11:21.502Z,100273.16
2023-01-20T19:13:51.121Z,100273.85
2023-01-20T19:16:20.057Z,100266.98
2023-01-20T19:18:51.826Z,100265.59
2023-01-20T19:21:19.280Z,100272.27
2023-01-20T19:23:49.337Z,100273.67
2023-01-20T19:26:18.780Z,100276.77
2023-01-20T19:28:47.555Z,100276.77
2023-01-20T19:31:16.696Z,100280.39
2023-01-20T19:33:43.830Z,100276.28
2023-01-20T19:36:13.628Z,100276.98
2023-01-20T19:38:41.243Z,100271.49
2023-01-20T19:41:10.134Z,100276.80
2023-01-20T19:43:38.145Z,100277.82
2023-01-20T19:46:07.306Z,100279.36
2023-01-20T19:48:34.930Z,100274.20
2023-01-20T19:51:06.759Z,100270.27
2023-01-20T19:53:34.513Z,100275.06
2023-01-20T19:56:06.717Z,100273.86
2023-01-20T19:58:34.483Z,100268.56
2023-01-20T20:01:10.405Z,100271.46
2023-01-20T20:03:38.308Z,100270.27
2023-01-20T20:06:06.696Z,100266.16
2023-01-20T20:08:33.687Z,100263.59
2023-01-20T20:11:00.805Z,100258.79
2023-01-20T20:13:27.788Z,100261.02
2023-01-20T20:16:03.003Z,100261.70
2023-01-20T20:18:30.233Z,100258.25
2023-01-20T20:20:57.879Z,100261.84
2023-01-20T20:23:25.336Z,100257.91
2023-01-20T20:25:56.040Z,100259.98
2023-01-20T20:28:23.694Z,100255.70
2023-01-20T20:30:50.797Z,100249.66
2023-01-20T20:33:18.676Z,100250.00
2023-01-20T20:35:45.959Z,100250.34
2023-01-20T20:38:13.082Z,100251.37
2023-01-20T20:40:40.124Z,100247.27
2023-01-20T20:43:07.411Z,100244.34
2023-01-20T20:45:35.216Z,100242.29
2023-01-20T20:48:02.640Z,100237.48
2023-01-20T20:50:29.872Z,100236.45
2023-01-20T20:52:57.369Z,100236.96
2023-01-20T20:55:25.192Z,100237.14
2023-01-20T20:57:52.620Z,100236.27
2023-01-20T21:00:23.692Z,100236.27
2023-01-20T21:02:50.730Z,100237.80
2023-01-20T21:05:19.115Z,100231.65
2023-01-20T21:07:46.646Z,100234.89
2023-01-20T21:10:17.052Z,100240.89
2023-01-20T21:12:44.975Z,100241.92
2023-01-20T21:15:13.685Z,100246.54
2023-01-20T21:17:41.524Z,100250.13
2023-01-20T21:20:10.965Z,100249.79
2023-01-20T21:22:38.070Z,100249.78
2023-01-20T21:25:06.364Z,100247.02
2023-01-20T21:27:34.793Z,100240.15
2023-01-20T21:30:02.025Z,100238.27
2023-01-20T21:32:29.192Z,100235.51
2023-01-20T21:34:56.363Z,100237.22
2023-01-20T21:37:23.860Z,100236.70
2023-01-20T21:39:50.764Z,100237.38
2023-01-20T21:42:17.975Z,100234.13
2023-01-20T21:44:45.002Z,100232.05
2023-01-20T21:47:12.016Z,100234.96
2023-01-20T21:49:57.785Z,100231.88
2023-01-20T21:52:45.459Z,100232.91
2023-01-20T21:55:16.094Z,100221.10
2023-01-20T21:57:43.435Z,100227.09
2023-01-20T22:00:14.358Z,100223.32
2023-01-20T22:02:43.660Z,100224.52
2023-01-20T22:05:12.080Z,100219.55
2023-01-20T22:07:39.283Z,100225.02
2023-01-20T22:10:07.921Z,100223.65
2023-01-20T22:12:35.706Z,100228.96
2023-01-20T22:15:03.563Z,100227.08
2023-01-20T22:17:31.259Z,100216.64
2023-01-20T22:19:58.461Z,100208.23
2023-01-20T22:22:25.739Z,100210.63
2023-01-20T22:24:55.090Z,100213.72
2023-01-20T22:27:22.255Z,100213.90
2023-01-20T22:29:49.469Z,100216.30
2023-01-20T22:32:16.533Z,100212.71
2023-01-20T22:34:43.642Z,100204.49
2023-01-20T22:37:10.818Z,100201.24
2023-01-20T22:39:37.836Z,100198.49
2023-01-20T22:42:05.249Z,100190.27
2023-01-20T22:44:32.463Z,100186.31
2023-01-20T22:46:59.482Z,100181.84
2023-01-20T22:49:26.601Z,100180.29
2023-01-20T22:51:54.614Z,100175.48
2023-01-20T22:54:21.845Z,100174.79
2023-01-20T22:56:48.841Z,100175.29
2023-01-20T22:59:16.271Z,100160.73
2023-01-20T23:01:43.407Z,100164.49
2023-01-20T23:04:11.017Z,100161.06
2023-01-20T23:06:39.399Z,100161.75
2023-01-20T23:09:09.204Z,100163.77
2023-01-20T23:11:38.428Z,100167.36
2023-01-20T23:14:05.640Z,100160.14
2023-01-20T23:16:32.843Z,100162.86
2023-01-20T23:18:59.863Z,100157.02
2023-01-20T23:21:26.923Z,100162.67
2023-01-20T23:23:55.520Z,100156.34
2023-01-20T23:26:28.519Z,100155.66
2023-01-20T23:28:56.271Z,100158.90
2023-01-20T23:31:24.979Z,100154.96
2023-01-20T23:33:54.047Z,100146.23
2023-01-20T23:36:24.357Z,100150.50
2023-01-20T23:38:51.408Z,100147.95
2023-01-20T23:41:18.627Z,100140.59
2023-01-20T23:43:46.018Z,100131.53
2023-01-20T23:46:13.074Z,100136.49
2023-01-20T23:48:40.442Z,100143.51
2023-01-20T23:51:08.635Z,100143.00
2023-01-20T23:53:38.262Z,100146.25
2023-01-20T23:56:08.312Z,100141.80
2023-01-20T23:58:35.402Z,100143.35
